createdAt,value
2017-05-25T08:28:48.844Z,2608
2017-05-25T08:29:50.500Z,2580
2017-05-25T08:30:52.441Z,2620
2017-05-25T08:31:54.333Z,2676
2017-05-25T08:32:56.273Z,2712
2017-05-25T08:33:58.302Z,2720
2017-05-25T08:35:00.331Z,2728
2017-05-25T08:36:02.122Z,2680
2017-05-25T08:37:04.052Z,2752
2017-05-25T08:38:06.289Z,2776
2017-05-25T08:39:08.129Z,2688
2017-05-25T08:40:10.092Z,2748
2017-05-25T08:41:12.062Z,2720
2017-05-25T08:42:14.001Z,2764
2017-05-25T08:43:15.954Z,2808
2017-05-25T08:44:17.964Z,2836
2017-05-25T08:45:19.996Z,2812
2017-05-25T08:46:21.845Z,2736
2017-05-25T08:47:23.847Z,2712
2017-05-25T08:48:25.701Z,2748
2017-05-25T08:49:27.677Z,2856
2017-05-25T08:50:29.681Z,2848
2017-05-25T08:51:31.744Z,2856
2017-05-25T08:52:33.576Z,2848
2017-05-25T08:53:35.772Z,2900
2017-05-25T08:54:37.599Z,2896
2017-05-25T08:55:39.746Z,2780
2017-05-25T08:56:42.009Z,2936
2017-05-25T08:57:44.226Z,2928
2017-05-25T08:58:46.067Z,2916
2017-05-25T08:59:48.018Z,2920
2017-05-25T09:00:50.181Z,2896
2017-05-25T09:01:52.316Z,2916
2017-05-25T09:02:54.200Z,2904
2017-05-25T09:03:56.222Z,2908
2017-05-25T09:04:58.246Z,2900
2017-05-25T09:06:00.299Z,2852
2017-05-25T09:07:03.585Z,2892
2017-05-25T09:08:05.733Z,2928
2017-05-25T09:09:07.705Z,2964
2017-05-25T09:10:09.797Z,2932
2017-05-25T09:11:11.976Z,2968
2017-05-25T09:12:13.906Z,2976
2017-05-25T09:13:16.051Z,2920
2017-05-25T09:14:18.023Z,3000
2017-05-25T09:15:19.987Z,2940
2017-05-25T09:16:22.121Z,2980
2017-05-25T09:17:24.308Z,3012
2017-05-25T09:18:26.777Z,3036
2017-05-25T09:19:29.026Z,3024
2017-05-25T09:20:31.314Z,3012
2017-05-25T09:21:33.189Z,2964
2017-05-25T09:22:35.351Z,3088
2017-05-25T09:23:37.363Z,3076
2017-05-25T09:24:39.426Z,3096
2017-05-25T09:25:41.579Z,3032
2017-05-25T09:26:43.655Z,3084
2017-05-25T09:27:45.791Z,3048
2017-05-25T09:28:47.803Z,3116
2017-05-25T09:29:49.848Z,3076
2017-05-25T09:30:51.998Z,3068
2017-05-25T09:31:54.201Z,3088
2017-05-25T09:32:56.110Z,3068
2017-05-25T09:33:58.145Z,3120
2017-05-25T09:35:00.025Z,3132
2017-05-25T09:36:02.052Z,3092
2017-05-25T09:37:03.893Z,3140
2017-05-25T09:38:05.973Z,3108
2017-05-25T09:39:08.190Z,3172
2017-05-25T09:40:10.517Z,3180
2017-05-25T09:41:12.553Z,3160
2017-05-25T09:42:15.005Z,3192
2017-05-25T09:43:17.496Z,3188
2017-05-25T09:44:19.566Z,3148
2017-05-25T09:45:21.682Z,3144
2017-05-25T09:46:23.897Z,3132
2017-05-25T09:47:26.153Z,3128
2017-05-25T09:48:28.430Z,3140
2017-05-25T09:49:33.359Z,3180
2017-05-25T09:50:35.305Z,3032
2017-05-25T09:51:37.304Z,2088
2017-05-25T09:52:40.516Z,3168
2017-05-25T09:53:42.803Z,3060
2017-05-25T10:38:37.493Z,2968
2017-05-25T10:39:39.261Z,2948
2017-05-25T10:40:41.071Z,2924
2017-05-25T10:41:43.288Z,2992
2017-05-25T10:42:45.803Z,2996
2017-05-25T10:43:48.174Z,2940
2017-05-25T10:44:50.305Z,2908
2017-05-25T10:45:52.316Z,2716
2017-05-25T10:46:54.550Z,2876
2017-05-25T10:47:56.459Z,2868
2017-05-25T10:48:58.468Z,2844
2017-05-25T10:50:00.434Z,2792
2017-05-25T10:51:02.563Z,2792
2017-05-25T10:52:04.512Z,2736
2017-05-25T10:53:06.764Z,2696
2017-05-25T10:54:09.048Z,2728
2017-05-25T10:55:11.289Z,2736
2017-05-25T10:57:00.758Z,2692
2017-05-25T10:58:02.499Z,2676
2017-05-25T10:59:04.525Z,2736
2017-05-25T11:00:06.462Z,2684
2017-05-25T11:01:08.789Z,2644
2017-05-25T11:02:10.609Z,2644
2017-05-25T11:03:12.535Z,2580
2017-05-25T11:04:14.671Z,2540
2017-05-25T11:05:16.807Z,2540
2017-05-25T11:06:18.729Z,2488
2017-05-25T11:07:20.610Z,2484
2017-05-25T11:08:22.568Z,2472
2017-05-25T11:09:24.439Z,2372
2017-05-25T11:10:27.491Z,2488
2017-05-25T11:11:29.389Z,2372
2017-05-25T11:12:31.558Z,2428
2017-05-25T11:13:33.810Z,2424
2017-05-25T11:14:35.572Z,2412
2017-05-25T11:15:37.968Z,2412
2017-05-25T11:16:40.208Z,2404
2017-05-25T11:17:42.446Z,2396
2017-05-25T11:18:44.493Z,2368
2017-05-25T11:19:46.385Z,2380
2017-05-25T11:20:48.548Z,2348
2017-05-25T11:21:50.489Z,2340
2017-05-25T11:22:53.579Z,2336
2017-05-25T11:23:55.838Z,2340
2017-05-25T11:24:58.066Z,2320
2017-05-25T11:25:59.989Z,2300
2017-05-25T11:27:01.749Z,2308
2017-05-25T11:28:03.939Z,2276
2017-05-25T11:29:06.112Z,2284
2017-05-25T11:30:08.168Z,2260
2017-05-25T11:31:10.111Z,2256
2017-05-25T11:32:12.146Z,2264
2017-05-25T11:33:14.201Z,2224
2017-05-25T11:34:16.078Z,2208
2017-05-25T11:35:17.927Z,2224
2017-05-25T11:36:19.879Z,2200
2017-05-25T11:37:21.902Z,2160
2017-05-25T11:38:24.282Z,2164
2017-05-25T11:39:26.070Z,2180
2017-05-25T11:40:28.478Z,2180
2017-05-25T11:41:30.415Z,2200
2017-05-25T11:42:32.606Z,2168
2017-05-25T11:43:34.952Z,2124
2017-05-25T11:44:36.844Z,2132
2017-05-25T11:45:38.918Z,2108
2017-05-25T11:46:41.127Z,2112
2017-05-25T11:47:42.947Z,2176
2017-05-25T11:48:44.786Z,2156
2017-05-25T11:49:46.885Z,2132
2017-05-25T11:50:48.984Z,2108
2017-05-25T11:51:50.902Z,2080
2017-05-25T11:52:53.037Z,2068
2017-05-25T11:53:54.917Z,2056
2017-05-25T11:54:56.945Z,2084
2017-05-25T11:55:58.849Z,2112
2017-05-25T11:57:01.251Z,2120
2017-05-25T11:58:03.195Z,2128
2017-05-25T11:59:05.446Z,2076
2017-05-25T12:00:07.407Z,2084
2017-05-25T12:01:09.375Z,2120
2017-05-25T12:02:11.369Z,2108
2017-05-25T12:03:13.246Z,2100
2017-05-25T12:04:15.672Z,2096
2017-05-25T12:05:17.426Z,2008
2017-05-25T12:06:19.219Z,2232
2017-05-25T12:07:20.986Z,2192
2017-05-25T12:08:22.875Z,2168
2017-05-25T12:09:24.801Z,2164
2017-05-25T12:10:26.670Z,2156
2017-05-25T12:11:28.784Z,2208
2017-05-25T12:12:30.555Z,2212
2017-05-25T12:13:32.469Z,2192
2017-05-25T12:14:34.305Z,2184
2017-05-25T12:15:36.219Z,2132
2017-05-25T12:16:38.029Z,2136
2017-05-25T12:17:39.881Z,2144
2017-05-25T12:18:42.003Z,2092
2017-05-25T12:19:44.133Z,2120
2017-05-25T12:20:45.997Z,2132
2017-05-25T12:21:47.793Z,2144
2017-05-25T12:22:49.573Z,2132
2017-05-25T12:23:51.451Z,2148
2017-05-25T12:24:53.337Z,2132
2017-05-25T12:25:55.464Z,2148
2017-05-25T12:26:57.231Z,2164
2017-05-25T12:27:59.080Z,2112
2017-05-25T12:29:01.098Z,2144
2017-05-25T12:30:02.846Z,2120
2017-05-25T12:31:04.897Z,2088
2017-05-25T12:32:06.679Z,2132
2017-05-25T12:33:08.521Z,2108
2017-05-25T12:34:10.573Z,2128
2017-05-25T12:35:12.315Z,2116
2017-05-25T12:36:13.992Z,2196
2017-05-25T12:37:15.795Z,2316
2017-05-25T12:38:17.572Z,2252
2017-05-25T12:39:19.417Z,2292
2017-05-25T12:40:21.528Z,1200
2017-05-25T12:41:23.349Z,1844
2017-05-25T12:42:25.473Z,2208
2017-05-25T12:43:27.272Z,2236
2017-05-25T12:44:29.016Z,2248
2017-05-25T12:45:30.995Z,2284
2017-05-25T12:46:33.020Z,2248
2017-05-25T12:47:34.863Z,2288
2017-05-25T12:48:36.680Z,2256
2017-05-25T12:49:38.613Z,1808
2017-05-25T12:50:40.486Z,1456
2017-05-25T12:51:42.312Z,1404
2017-05-25T12:52:44.278Z,1628
2017-05-25T12:53:46.191Z,1736
2017-05-25T12:54:48.267Z,1644
2017-05-25T12:55:50.289Z,1624
2017-05-25T12:56:52.290Z,1928
2017-05-25T12:57:54.536Z,2260
2017-05-25T12:58:56.693Z,1956
2017-05-25T12:59:58.693Z,1968
2017-05-25T13:01:00.555Z,1168
2017-05-25T13:02:02.320Z,1940
2017-05-25T13:03:04.167Z,1256
2017-05-25T13:04:05.954Z,1052
2017-05-25T13:05:07.788Z,1044
2017-05-25T13:06:09.786Z,1532
2017-05-25T13:07:11.522Z,1776
2017-05-25T13:08:13.694Z,1620
2017-05-25T13:09:15.842Z,1884
2017-05-25T13:10:18.085Z,2048
2017-05-25T13:11:19.917Z,2068
2017-05-25T13:12:21.814Z,1776
2017-05-25T13:13:23.515Z,1808
2017-05-25T13:14:25.242Z,2012
2017-05-25T13:15:27.143Z,2040
2017-05-25T13:16:29.009Z,2060
2017-05-25T13:17:31.021Z,2036
2017-05-25T13:18:33.240Z,1984
2017-05-25T13:19:35.045Z,1960
2017-05-25T13:20:36.867Z,1912
2017-05-25T13:21:38.618Z,1880
2017-05-25T13:22:40.411Z,1924
2017-05-25T13:23:42.170Z,1936
2017-05-25T13:24:44.117Z,1960
2017-05-25T13:25:45.867Z,1180
2017-05-25T13:26:47.805Z,708
2017-05-25T13:27:49.606Z,1996
2017-05-25T13:28:51.785Z,2048
2017-05-25T13:29:53.639Z,2056
2017-05-25T13:30:55.469Z,2012
2017-05-25T13:31:57.342Z,736
2017-05-25T13:32:59.483Z,764
2017-05-25T13:34:01.651Z,1548
2017-05-25T13:35:03.513Z,2024
2017-05-25T13:36:05.381Z,2080
2017-05-25T13:37:07.286Z,2028
2017-05-25T13:38:09.021Z,1984
2017-05-25T13:39:10.821Z,1992
2017-05-25T13:40:12.673Z,1004
2017-05-25T13:41:14.940Z,664
2017-05-25T13:42:16.617Z,668
2017-05-25T13:43:18.570Z,1648
2017-05-25T13:44:20.449Z,2008
2017-05-25T13:45:22.528Z,2028
2017-05-25T13:46:24.386Z,2020
2017-05-25T13:47:26.299Z,2016
2017-05-25T13:48:28.133Z,1976
2017-05-25T13:49:29.902Z,864
2017-05-25T13:50:31.930Z,2052
2017-05-25T13:51:33.631Z,1980
2017-05-25T13:52:35.576Z,1608
2017-05-25T13:53:37.720Z,964
2017-05-25T13:54:39.508Z,1276
2017-05-25T13:55:41.281Z,1492
2017-05-25T13:56:43.188Z,784
2017-05-25T13:57:45.221Z,1676
2017-05-25T13:58:47.322Z,800
2017-05-25T13:59:49.488Z,868
2017-05-25T14:00:51.268Z,1876
2017-05-25T14:01:53.136Z,1892
2017-05-25T14:02:54.955Z,1948
2017-05-25T14:03:56.691Z,1908
2017-05-25T14:04:58.553Z,1304
2017-05-25T14:06:00.518Z,872
2017-05-25T14:07:02.377Z,956
2017-05-25T14:08:04.385Z,1832
2017-05-25T14:09:06.592Z,2108
2017-05-25T14:10:08.397Z,984
2017-05-25T14:11:10.255Z,924
2017-05-25T14:12:12.544Z,2000
2017-05-25T14:13:14.234Z,1028
2017-05-25T14:14:15.988Z,1292
2017-05-25T14:15:17.826Z,912
2017-05-25T14:16:19.635Z,2000
2017-05-25T14:17:21.478Z,880
2017-05-25T14:18:23.264Z,912
2017-05-25T14:19:25.331Z,2080
2017-05-25T14:20:27.181Z,2100
2017-05-25T14:21:29.112Z,1564
2017-05-25T14:22:30.887Z,1528
2017-05-25T14:23:32.696Z,872
2017-05-25T14:24:34.524Z,884
2017-05-25T14:25:36.615Z,824
2017-05-25T14:26:39.107Z,836
2017-05-25T14:27:41.004Z,880
2017-05-25T14:28:42.790Z,852
2017-05-25T14:29:44.940Z,888
2017-05-25T14:30:47.123Z,932
2017-05-25T14:31:49.234Z,1224
2017-05-25T14:32:50.993Z,796
2017-05-25T14:33:52.784Z,892
2017-05-25T14:34:54.626Z,876
2017-05-25T14:35:56.538Z,1924
2017-05-25T14:36:58.682Z,812
2017-05-25T14:38:00.805Z,824
2017-05-25T14:39:02.930Z,904
2017-05-25T14:40:04.686Z,932
2017-05-25T14:41:06.552Z,1060
2017-05-25T14:42:08.323Z,2000
2017-05-25T14:43:10.398Z,2044
2017-05-25T14:44:12.584Z,2020
2017-05-25T14:45:14.540Z,2016
2017-05-25T14:46:16.336Z,2000
2017-05-25T14:47:18.143Z,1920
2017-05-25T14:48:20.074Z,1224
2017-05-25T14:49:22.195Z,1108
2017-05-25T14:50:23.879Z,888
2017-05-25T14:51:26.047Z,836
2017-05-25T14:52:28.004Z,1908
2017-05-25T14:53:29.928Z,1312
2017-05-25T14:54:31.791Z,928
2017-05-25T14:55:33.529Z,828
2017-05-25T14:56:35.670Z,1232
2017-05-25T14:57:37.481Z,1084
2017-05-25T14:58:39.642Z,796
2017-05-25T14:59:41.583Z,860
2017-05-25T15:00:43.455Z,688
2017-05-25T15:01:45.316Z,688
2017-05-25T15:02:47.132Z,1644
2017-05-25T15:03:49.215Z,748
2017-05-25T15:04:51.079Z,1564
2017-05-25T15:05:52.823Z,1600
2017-05-25T15:06:54.724Z,752
2017-05-25T15:07:56.525Z,772
2017-05-25T15:49:02.166Z,436
2017-05-25T15:50:06.236Z,440
2017-05-25T16:16:25.577Z,312
2017-05-25T16:17:27.486Z,328
2017-05-25T16:18:29.422Z,348
2017-05-25T16:19:31.687Z,336
2017-05-25T16:20:33.643Z,568
2017-05-25T16:21:35.484Z,332
2017-05-25T16:22:38.070Z,388
2017-05-25T16:23:39.790Z,536
2017-05-25T16:24:41.598Z,344
2017-05-25T16:25:43.848Z,460
2017-05-25T16:26:45.961Z,384
2017-05-25T16:28:35.029Z,364
2017-05-25T16:29:37.182Z,360
2017-05-25T16:30:39.330Z,352
2017-05-25T16:31:41.859Z,380
2017-05-25T16:32:43.826Z,756
2017-05-25T16:34:29.901Z,772
2017-05-25T16:35:31.337Z,792
2017-05-25T16:36:33.219Z,412
2017-05-25T16:37:35.082Z,372
2017-05-25T16:38:37.406Z,448
2017-05-25T16:39:39.814Z,720
2017-05-25T16:40:41.993Z,352
2017-05-25T20:19:21.328Z,8
2017-05-25T20:20:23.550Z,8
2017-05-25T20:21:25.858Z,8
2017-05-25T20:23:10.727Z,0
2017-05-25T20:24:13.956Z,0
2017-05-25T20:25:15.890Z,0
2017-05-25T20:26:18.864Z,0
2017-05-25T20:27:20.855Z,0
2017-05-25T20:28:23.384Z,0
2017-05-25T20:29:25.176Z,0
2017-05-25T20:30:26.948Z,0
2017-05-25T20:31:29.067Z,0
2017-05-25T20:32:31.476Z,0
2017-05-25T20:33:33.505Z,0
2017-05-25T20:34:35.660Z,0
2017-05-25T20:35:37.580Z,0
2017-05-25T20:36:39.538Z,0
2017-05-25T20:37:41.701Z,0
2017-05-25T20:38:43.712Z,0
2017-05-25T20:39:46.462Z,0
2017-05-25T20:40:48.609Z,0
2017-05-25T20:41:51.330Z,0
2017-05-25T20:42:53.732Z,0
2017-05-25T20:43:55.637Z,0
2017-05-25T20:44:57.472Z,0
2017-05-25T20:45:59.476Z,0
2017-05-25T20:47:01.645Z,0
2017-05-25T20:48:03.572Z,0
2017-05-25T20:50:57.826Z,0
2017-05-25T20:51:59.856Z,0
2017-05-25T20:53:03.387Z,0
2017-05-25T20:54:05.303Z,0
2017-05-25T20:55:07.068Z,0
2017-05-25T20:56:09.529Z,0
2017-05-25T20:57:11.453Z,0
2017-05-25T20:58:14.073Z,0
2017-05-25T20:59:15.990Z,0
2017-05-25T21:00:18.010Z,0
2017-05-25T21:01:19.903Z,0
2017-05-25T21:02:22.477Z,0
2017-05-25T21:03:24.596Z,0
2017-05-25T21:04:26.913Z,0
2017-05-25T21:05:29.416Z,0
2017-05-25T21:06:31.290Z,0
2017-05-25T21:07:33.149Z,0
2017-05-25T21:08:34.978Z,0
